sensor_id;sensor_type;location;lat;lon;timestamp;temperature;humidity
10678;DHT22;5387;48.722;9.110;2023-04-24T00:01:44;9.50;99.90
10678;DHT22;5387;48.722;9.110;2023-04-24T00:04:11;9.50;99.90
10678;DHT22;5387;48.722;9.110;2023-04-24T00:06:41;9.50;99.90
10678;DHT22;5387;48.722;9.110;2023-04-24T00:09:08;9.50;99.90
10678;DHT22;5387;48.722;9.110;2023-04-24T00:11:36;9.50;99.90
10678;DHT22;5387;48.722;9.110;2023-04-24T00:14:03;9.50;99.90
10678;DHT22;5387;48.722;9.110;2023-04-24T00:16:30;9.50;99.90
10678;DHT22;5387;48.722;9.110;2023-04-24T00:18:58;9.50;99.90
10678;DHT22;5387;48.722;9.110;2023-04-24T00:21:26;9.50;99.90
10678;DHT22;5387;48.722;9.110;2023-04-24T00:23:53;9.60;99.90
10678;DHT22;5387;48.722;9.110;2023-04-24T00:26:20;9.60;99.90
10678;DHT22;5387;48.722;9.110;2023-04-24T00:28:46;9.60;99.90
10678;DHT22;5387;48.722;9.110;2023-04-24T00:31:13;9.60;99.90
10678;DHT22;5387;48.722;9.110;2023-04-24T00:33:40;9.80;99.90
10678;DHT22;5387;48.722;9.110;2023-04-24T00:36:08;9.70;99.90
10678;DHT22;5387;48.722;9.110;2023-04-24T00:38:35;9.70;99.90
10678;DHT22;5387;48.722;9.110;2023-04-24T00:41:02;9.70;99.90
10678;DHT22;5387;48.722;9.110;2023-04-24T00:43:29;9.70;99.90
10678;DHT22;5387;48.722;9.110;2023-04-24T00:45:56;9.80;99.90
10678;DHT22;5387;48.722;9.110;2023-04-24T00:48:25;9.80;99.90
10678;DHT22;5387;48.722;9.110;2023-04-24T00:50:52;9.70;99.90
10678;DHT22;5387;48.722;9.110;2023-04-24T00:53:21;9.70;99.90
10678;DHT22;5387;48.722;9.110;2023-04-24T00:55:47;9.70;99.90
10678;DHT22;5387;48.722;9.110;2023-04-24T00:58:14;9.70;99.90
10678;DHT22;5387;48.722;9.110;2023-04-24T01:00:41;9.80;99.90
10678;DHT22;5387;48.722;9.110;2023-04-24T01:03:08;9.80;99.90
10678;DHT22;5387;48.722;9.110;2023-04-24T01:05:36;9.80;99.90
10678;DHT22;5387;48.722;9.110;2023-04-24T01:08:03;9.70;99.90
10678;DHT22;5387;48.722;9.110;2023-04-24T01:10:33;9.80;99.90
10678;DHT22;5387;48.722;9.110;2023-04-24T01:13:00;9.80;99.90
10678;DHT22;5387;48.722;9.110;2023-04-24T01:15:27;9.90;99.90
10678;DHT22;5387;48.722;9.110;2023-04-24T01:17:53;9.80;99.90
10678;DHT22;5387;48.722;9.110;2023-04-24T01:20:21;9.80;99.90
10678;DHT22;5387;48.722;9.110;2023-04-24T01:22:50;9.90;99.90
10678;DHT22;5387;48.722;9.110;2023-04-24T01:25:16;9.80;99.90
10678;DHT22;5387;48.722;9.110;2023-04-24T01:27:43;9.90;99.90
10678;DHT22;5387;48.722;9.110;2023-04-24T01:30:13;9.80;99.90
10678;DHT22;5387;48.722;9.110;2023-04-24T01:32:40;9.80;99.90
10678;DHT22;5387;48.722;9.110;2023-04-24T01:35:10;9.70;99.90
10678;DHT22;5387;48.722;9.110;2023-04-24T01:37:37;9.60;99.90
10678;DHT22;5387;48.722;9.110;2023-04-24T01:40:06;9.60;99.90
10678;DHT22;5387;48.722;9.110;2023-04-24T01:42:34;9.60;99.90
10678;DHT22;5387;48.722;9.110;2023-04-24T01:45:02;9.60;99.90
10678;DHT22;5387;48.722;9.110;2023-04-24T01:47:31;9.60;99.90
10678;DHT22;5387;48.722;9.110;2023-04-24T01:49:58;9.60;99.90
10678;DHT22;5387;48.722;9.110;2023-04-24T01:52:25;9.60;99.90
10678;DHT22;5387;48.722;9.110;2023-04-24T01:54:52;9.50;99.90
10678;DHT22;5387;48.722;9.110;2023-04-24T01:57:22;9.50;99.90
10678;DHT22;5387;48.722;9.110;2023-04-24T01:59:50;9.60;99.90
10678;DHT22;5387;48.722;9.110;2023-04-24T02:02:17;9.60;99.90
10678;DHT22;5387;48.722;9.110;2023-04-24T02:04:44;9.60;99.90
10678;DHT22;5387;48.722;9.110;2023-04-24T02:07:11;9.50;99.90
10678;DHT22;5387;48.722;9.110;2023-04-24T02:09:37;9.60;99.90
10678;DHT22;5387;48.722;9.110;2023-04-24T02:12:04;9.60;99.90
10678;DHT22;5387;48.722;9.110;2023-04-24T02:14:32;9.60;99.90
10678;DHT22;5387;48.722;9.110;2023-04-24T02:16:59;9.60;99.90
10678;DHT22;5387;48.722;9.110;2023-04-24T02:19:26;9.50;99.90
10678;DHT22;5387;48.722;9.110;2023-04-24T02:21:53;9.40;99.90
10678;DHT22;5387;48.722;9.110;2023-04-24T02:24:20;9.40;99.90
10678;DHT22;5387;48.722;9.110;2023-04-24T02:26:47;9.40;99.90
10678;DHT22;5387;48.722;9.110;2023-04-24T02:29:14;9.40;99.90
10678;DHT22;5387;48.722;9.110;2023-04-24T02:31:42;9.40;99.90
10678;DHT22;5387;48.722;9.110;2023-04-24T02:34:09;9.50;99.90
10678;DHT22;5387;48.722;9.110;2023-04-24T02:36:36;9.60;99.90
10678;DHT22;5387;48.722;9.110;2023-04-24T02:39:03;9.60;99.90
10678;DHT22;5387;48.722;9.110;2023-04-24T02:41:29;9.70;99.90
10678;DHT22;5387;48.722;9.110;2023-04-24T02:43:58;9.70;99.90
10678;DHT22;5387;48.722;9.110;2023-04-24T02:46:25;9.70;99.90
10678;DHT22;5387;48.722;9.110;2023-04-24T02:48:53;9.80;99.90
10678;DHT22;5387;48.722;9.110;2023-04-24T02:51:20;9.80;99.90
10678;DHT22;5387;48.722;9.110;2023-04-24T02:53:47;9.80;99.90
10678;DHT22;5387;48.722;9.110;2023-04-24T02:56:13;9.70;99.90
10678;DHT22;5387;48.722;9.110;2023-04-24T02:58:40;9.50;99.90
10678;DHT22;5387;48.722;9.110;2023-04-24T03:01:07;9.30;99.90
10678;DHT22;5387;48.722;9.110;2023-04-24T03:03:35;9.40;99.90
10678;DHT22;5387;48.722;9.110;2023-04-24T03:06:04;9.40;99.90
10678;DHT22;5387;48.722;9.110;2023-04-24T03:08:31;9.30;99.90
10678;DHT22;5387;48.722;9.110;2023-04-24T03:10:58;9.20;99.90
10678;DHT22;5387;48.722;9.110;2023-04-24T03:13:25;9.10;99.90
10678;DHT22;5387;48.722;9.110;2023-04-24T03:15:52;9.00;99.90
10678;DHT22;5387;48.722;9.110;2023-04-24T03:18:19;8.90;99.90
10678;DHT22;5387;48.722;9.110;2023-04-24T03:20:46;9.00;99.90
10678;DHT22;5387;48.722;9.110;2023-04-24T03:23:14;8.80;99.90
10678;DHT22;5387;48.722;9.110;2023-04-24T03:25:41;8.90;99.90
10678;DHT22;5387;48.722;9.110;2023-04-24T03:28:08;8.90;99.90
10678;DHT22;5387;48.722;9.110;2023-04-24T03:30:35;8.90;99.90
10678;DHT22;5387;48.722;9.110;2023-04-24T03:33:02;8.90;99.90
10678;DHT22;5387;48.722;9.110;2023-04-24T03:35:28;9.00;99.90
10678;DHT22;5387;48.722;9.110;2023-04-24T03:37:55;9.00;99.90
10678;DHT22;5387;48.722;9.110;2023-04-24T03:40:23;9.10;99.90
10678;DHT22;5387;48.722;9.110;2023-04-24T03:42:50;9.00;99.90
10678;DHT22;5387;48.722;9.110;2023-04-24T03:45:17;9.00;99.90
10678;DHT22;5387;48.722;9.110;2023-04-24T03:47:44;9.00;99.90
10678;DHT22;5387;48.722;9.110;2023-04-24T03:50:11;8.90;99.90
10678;DHT22;5387;48.722;9.110;2023-04-24T03:52:37;8.70;99.90
10678;DHT22;5387;48.722;9.110;2023-04-24T03:55:05;8.70;99.90
10678;DHT22;5387;48.722;9.110;2023-04-24T03:57:34;8.70;99.90
10678;DHT22;5387;48.722;9.110;2023-04-24T04:00:01;8.70;99.90
10678;DHT22;5387;48.722;9.110;2023-04-24T04:02:29;8.70;99.90
10678;DHT22;5387;48.722;9.110;2023-04-24T04:04:56;8.60;99.90
10678;DHT22;5387;48.722;9.110;2023-04-24T04:07:23;8.80;99.90
10678;DHT22;5387;48.722;9.110;2023-04-24T04:09:50;8.70;99.90
10678;DHT22;5387;48.722;9.110;2023-04-24T04:12:17;8.80;99.90
10678;DHT22;5387;48.722;9.110;2023-04-24T04:14:45;8.80;99.90
10678;DHT22;5387;48.722;9.110;2023-04-24T04:17:12;8.90;99.90
10678;DHT22;5387;48.722;9.110;2023-04-24T04:19:39;9.00;99.90
10678;DHT22;5387;48.722;9.110;2023-04-24T04:22:06;9.10;99.90
10678;DHT22;5387;48.722;9.110;2023-04-24T04:24:33;9.20;99.90
10678;DHT22;5387;48.722;9.110;2023-04-24T04:27:03;9.30;99.90
10678;DHT22;5387;48.722;9.110;2023-04-24T04:29:31;9.20;99.90
10678;DHT22;5387;48.722;9.110;2023-04-24T04:31:59;8.90;99.90
10678;DHT22;5387;48.722;9.110;2023-04-24T04:34:26;8.40;99.90
10678;DHT22;5387;48.722;9.110;2023-04-24T04:36:54;8.10;99.90
10678;DHT22;5387;48.722;9.110;2023-04-24T04:39:21;7.90;99.90
10678;DHT22;5387;48.722;9.110;2023-04-24T04:41:47;7.70;99.90
10678;DHT22;5387;48.722;9.110;2023-04-24T04:44:15;7.70;99.90
10678;DHT22;5387;48.722;9.110;2023-04-24T04:46:42;7.60;99.90
10678;DHT22;5387;48.722;9.110;2023-04-24T04:49:11;7.60;99.90
10678;DHT22;5387;48.722;9.110;2023-04-24T04:51:38;7.60;99.90
10678;DHT22;5387;48.722;9.110;2023-04-24T04:54:05;7.60;99.90
10678;DHT22;5387;48.722;9.110;2023-04-24T04:56:32;7.60;99.90
10678;DHT22;5387;48.722;9.110;2023-04-24T04:58:58;7.60;99.90
10678;DHT22;5387;48.722;9.110;2023-04-24T05:01:25;7.60;99.90
10678;DHT22;5387;48.722;9.110;2023-04-24T05:03:53;7.60;99.90
10678;DHT22;5387;48.722;9.110;2023-04-24T05:06:21;7.60;99.90
10678;DHT22;5387;48.722;9.110;2023-04-24T05:08:47;7.60;99.90
10678;DHT22;5387;48.722;9.110;2023-04-24T05:11:15;7.60;99.90
10678;DHT22;5387;48.722;9.110;2023-04-24T05:13:41;7.60;99.90
10678;DHT22;5387;48.722;9.110;2023-04-24T05:16:08;7.60;99.90
10678;DHT22;5387;48.722;9.110;2023-04-24T05:18:35;7.70;99.90
10678;DHT22;5387;48.722;9.110;2023-04-24T05:21:02;7.70;99.90
10678;DHT22;5387;48.722;9.110;2023-04-24T05:23:30;7.70;99.90
10678;DHT22;5387;48.722;9.110;2023-04-24T05:25:57;7.70;99.90
10678;DHT22;5387;48.722;9.110;2023-04-24T05:28:24;7.80;99.90
10678;DHT22;5387;48.722;9.110;2023-04-24T05:30:53;7.80;99.90
10678;DHT22;5387;48.722;9.110;2023-04-24T05:33:20;7.90;99.90
10678;DHT22;5387;48.722;9.110;2023-04-24T05:35:47;7.90;99.90
10678;DHT22;5387;48.722;9.110;2023-04-24T05:38:14;8.00;99.90
10678;DHT22;5387;48.722;9.110;2023-04-24T05:40:44;8.10;99.90
10678;DHT22;5387;48.722;9.110;2023-04-24T05:43:11;8.10;99.90
10678;DHT22;5387;48.722;9.110;2023-04-24T05:45:38;8.30;99.90
10678;DHT22;5387;48.722;9.110;2023-04-24T05:48:05;8.40;99.90
10678;DHT22;5387;48.722;9.110;2023-04-24T05:50:32;8.50;99.90
10678;DHT22;5387;48.722;9.110;2023-04-24T05:52:59;8.40;99.90
10678;DHT22;5387;48.722;9.110;2023-04-24T05:55:27;8.40;99.90
10678;DHT22;5387;48.722;9.110;2023-04-24T05:57:55;8.60;99.90
10678;DHT22;5387;48.722;9.110;2023-04-24T06:00:23;8.40;99.90
10678;DHT22;5387;48.722;9.110;2023-04-24T06:02:50;8.40;99.90
10678;DHT22;5387;48.722;9.110;2023-04-24T06:05:17;8.20;99.90
10678;DHT22;5387;48.722;9.110;2023-04-24T06:07:44;8.30;99.90
10678;DHT22;5387;48.722;9.110;2023-04-24T06:10:11;8.30;99.90
10678;DHT22;5387;48.722;9.110;2023-04-24T06:12:38;8.30;99.90
10678;DHT22;5387;48.722;9.110;2023-04-24T06:15:07;8.30;99.90
10678;DHT22;5387;48.722;9.110;2023-04-24T06:17:34;8.30;99.90
10678;DHT22;5387;48.722;9.110;2023-04-24T06:20:01;8.40;99.90
10678;DHT22;5387;48.722;9.110;2023-04-24T06:22:29;8.40;99.90
10678;DHT22;5387;48.722;9.110;2023-04-24T06:24:55;8.50;99.90
10678;DHT22;5387;48.722;9.110;2023-04-24T06:27:22;8.60;99.90
10678;DHT22;5387;48.722;9.110;2023-04-24T06:29:49;8.80;99.90
10678;DHT22;5387;48.722;9.110;2023-04-24T06:32:21;9.00;99.90
10678;DHT22;5387;48.722;9.110;2023-04-24T06:34:48;9.10;99.90
10678;DHT22;5387;48.722;9.110;2023-04-24T06:37:15;9.40;99.90
10678;DHT22;5387;48.722;9.110;2023-04-24T06:39:42;9.30;99.90
10678;DHT22;5387;48.722;9.110;2023-04-24T06:42:08;9.50;99.90
10678;DHT22;5387;48.722;9.110;2023-04-24T06:44:35;9.70;99.90
10678;DHT22;5387;48.722;9.110;2023-04-24T06:47:06;9.70;99.90
10678;DHT22;5387;48.722;9.110;2023-04-24T06:49:34;9.70;99.90
10678;DHT22;5387;48.722;9.110;2023-04-24T06:52:01;9.90;99.90
10678;DHT22;5387;48.722;9.110;2023-04-24T06:54:28;10.20;99.90
10678;DHT22;5387;48.722;9.110;2023-04-24T06:56:55;10.30;99.90
10678;DHT22;5387;48.722;9.110;2023-04-24T06:59:22;10.50;99.90
10678;DHT22;5387;48.722;9.110;2023-04-24T07:01:49;10.70;99.90
10678;DHT22;5387;48.722;9.110;2023-04-24T07:04:16;10.90;99.90
10678;DHT22;5387;48.722;9.110;2023-04-24T07:06:45;11.10;99.90
10678;DHT22;5387;48.722;9.110;2023-04-24T07:09:12;11.00;99.90
10678;DHT22;5387;48.722;9.110;2023-04-24T07:11:41;11.10;99.90
10678;DHT22;5387;48.722;9.110;2023-04-24T07:14:08;10.80;99.90
10678;DHT22;5387;48.722;9.110;2023-04-24T07:16:35;10.70;99.90
10678;DHT22;5387;48.722;9.110;2023-04-24T07:19:02;10.50;99.90
10678;DHT22;5387;48.722;9.110;2023-04-24T07:21:29;10.20;99.90
10678;DHT22;5387;48.722;9.110;2023-04-24T07:23:58;10.10;99.90
10678;DHT22;5387;48.722;9.110;2023-04-24T07:26:26;10.00;99.90
10678;DHT22;5387;48.722;9.110;2023-04-24T07:28:53;9.90;99.90
10678;DHT22;5387;48.722;9.110;2023-04-24T07:31:20;9.90;99.90
10678;DHT22;5387;48.722;9.110;2023-04-24T07:33:47;9.80;99.90
10678;DHT22;5387;48.722;9.110;2023-04-24T07:36:14;10.00;99.90
10678;DHT22;5387;48.722;9.110;2023-04-24T07:38:44;10.20;99.90
10678;DHT22;5387;48.722;9.110;2023-04-24T07:41:13;10.60;99.90
10678;DHT22;5387;48.722;9.110;2023-04-24T07:43:40;10.90;99.90
10678;DHT22;5387;48.722;9.110;2023-04-24T07:46:07;11.10;99.90
10678;DHT22;5387;48.722;9.110;2023-04-24T07:48:34;11.30;99.90
10678;DHT22;5387;48.722;9.110;2023-04-24T07:51:00;11.00;99.90
10678;DHT22;5387;48.722;9.110;2023-04-24T07:53:27;11.00;99.90
10678;DHT22;5387;48.722;9.110;2023-04-24T07:55:54;11.10;99.90
10678;DHT22;5387;48.722;9.110;2023-04-24T07:58:22;11.30;99.90
10678;DHT22;5387;48.722;9.110;2023-04-24T08:00:49;11.00;99.90
10678;DHT22;5387;48.722;9.110;2023-04-24T08:03:16;10.80;99.90
10678;DHT22;5387;48.722;9.110;2023-04-24T08:05:45;10.70;99.90
10678;DHT22;5387;48.722;9.110;2023-04-24T08:08:12;10.80;99.90
10678;DHT22;5387;48.722;9.110;2023-04-24T08:10:39;10.70;99.90
10678;DHT22;5387;48.722;9.110;2023-04-24T08:13:06;10.50;99.90
10678;DHT22;5387;48.722;9.110;2023-04-24T08:15:34;10.60;99.90
10678;DHT22;5387;48.722;9.110;2023-04-24T08:18:01;10.50;99.90
10678;DHT22;5387;48.722;9.110;2023-04-24T08:20:27;10.20;99.90
10678;DHT22;5387;48.722;9.110;2023-04-24T08:22:54;10.10;99.90
10678;DHT22;5387;48.722;9.110;2023-04-24T08:25:21;10.10;99.90
10678;DHT22;5387;48.722;9.110;2023-04-24T08:27:50;10.10;99.90
10678;DHT22;5387;48.722;9.110;2023-04-24T08:30:17;10.20;99.90
10678;DHT22;5387;48.722;9.110;2023-04-24T08:32:45;10.30;99.90
10678;DHT22;5387;48.722;9.110;2023-04-24T08:35:12;10.40;99.90
10678;DHT22;5387;48.722;9.110;2023-04-24T08:37:39;10.40;99.90
10678;DHT22;5387;48.722;9.110;2023-04-24T08:40:10;10.70;99.90
10678;DHT22;5387;48.722;9.110;2023-04-24T08:42:39;11.00;99.90
10678;DHT22;5387;48.722;9.110;2023-04-24T08:45:07;11.30;99.90
10678;DHT22;5387;48.722;9.110;2023-04-24T08:47:35;11.30;99.90
10678;DHT22;5387;48.722;9.110;2023-04-24T08:50:04;11.00;99.90
10678;DHT22;5387;48.722;9.110;2023-04-24T08:52:32;11.10;99.90
10678;DHT22;5387;48.722;9.110;2023-04-24T08:55:00;11.30;99.90
10678;DHT22;5387;48.722;9.110;2023-04-24T08:57:27;11.50;99.90
10678;DHT22;5387;48.722;9.110;2023-04-24T08:59:54;11.80;99.90
10678;DHT22;5387;48.722;9.110;2023-04-24T09:02:23;12.00;99.90
10678;DHT22;5387;48.722;9.110;2023-04-24T09:04:50;12.10;99.90
10678;DHT22;5387;48.722;9.110;2023-04-24T09:07:19;12.20;99.90
10678;DHT22;5387;48.722;9.110;2023-04-24T09:09:46;12.20;99.90
10678;DHT22;5387;48.722;9.110;2023-04-24T09:12:14;12.10;99.90
10678;DHT22;5387;48.722;9.110;2023-04-24T09:14:41;11.80;99.90
10678;DHT22;5387;48.722;9.110;2023-04-24T09:17:10;11.70;99.90
10678;DHT22;5387;48.722;9.110;2023-04-24T09:19:37;11.60;99.90
10678;DHT22;5387;48.722;9.110;2023-04-24T09:22:05;11.40;99.90
10678;DHT22;5387;48.722;9.110;2023-04-24T09:24:34;11.10;99.90
10678;DHT22;5387;48.722;9.110;2023-04-24T09:27:02;10.90;99.90
10678;DHT22;5387;48.722;9.110;2023-04-24T09:29:29;11.00;99.90
10678;DHT22;5387;48.722;9.110;2023-04-24T09:31:58;11.00;99.90
10678;DHT22;5387;48.722;9.110;2023-04-24T09:34:26;11.40;99.90
10678;DHT22;5387;48.722;9.110;2023-04-24T09:36:54;11.60;99.90
10678;DHT22;5387;48.722;9.110;2023-04-24T09:39:20;11.70;99.90
10678;DHT22;5387;48.722;9.110;2023-04-24T09:41:49;12.00;99.90
10678;DHT22;5387;48.722;9.110;2023-04-24T09:44:18;12.30;99.90
10678;DHT22;5387;48.722;9.110;2023-04-24T09:46:50;12.30;99.90
10678;DHT22;5387;48.722;9.110;2023-04-24T09:49:22;12.60;99.90
10678;DHT22;5387;48.722;9.110;2023-04-24T09:51:50;12.70;99.90
10678;DHT22;5387;48.722;9.110;2023-04-24T09:54:17;12.50;99.90
10678;DHT22;5387;48.722;9.110;2023-04-24T09:56:46;12.20;99.90
10678;DHT22;5387;48.722;9.110;2023-04-24T09:59:15;11.90;99.90
10678;DHT22;5387;48.722;9.110;2023-04-24T10:01:42;11.80;99.90
10678;DHT22;5387;48.722;9.110;2023-04-24T10:04:16;11.60;99.90
10678;DHT22;5387;48.722;9.110;2023-04-24T10:06:44;11.50;99.90
10678;DHT22;5387;48.722;9.110;2023-04-24T10:09:11;11.60;99.90
10678;DHT22;5387;48.722;9.110;2023-04-24T10:11:41;11.70;99.90
10678;DHT22;5387;48.722;9.110;2023-04-24T10:14:09;11.60;99.90
10678;DHT22;5387;48.722;9.110;2023-04-24T10:16:39;11.60;99.90
10678;DHT22;5387;48.722;9.110;2023-04-24T10:19:06;11.80;99.90
10678;DHT22;5387;48.722;9.110;2023-04-24T10:21:34;11.90;99.90
10678;DHT22;5387;48.722;9.110;2023-04-24T10:24:01;12.10;99.90
10678;DHT22;5387;48.722;9.110;2023-04-24T10:26:30;12.40;99.90
10678;DHT22;5387;48.722;9.110;2023-04-24T10:28:58;12.80;99.90
10678;DHT22;5387;48.722;9.110;2023-04-24T10:31:26;12.80;99.90
10678;DHT22;5387;48.722;9.110;2023-04-24T10:33:55;12.70;99.90
10678;DHT22;5387;48.722;9.110;2023-04-24T10:36:22;12.20;99.90
10678;DHT22;5387;48.722;9.110;2023-04-24T10:38:53;12.20;99.90
10678;DHT22;5387;48.722;9.110;2023-04-24T10:41:21;11.90;99.90
10678;DHT22;5387;48.722;9.110;2023-04-24T10:44:04;12.30;99.90
10678;DHT22;5387;48.722;9.110;2023-04-24T10:46:31;12.10;99.90
10678;DHT22;5387;48.722;9.110;2023-04-24T10:49:03;12.30;99.90
10678;DHT22;5387;48.722;9.110;2023-04-24T10:51:45;12.30;99.90
10678;DHT22;5387;48.722;9.110;2023-04-24T10:54:22;12.30;99.90
10678;DHT22;5387;48.722;9.110;2023-04-24T10:56:50;12.00;99.90
10678;DHT22;5387;48.722;9.110;2023-04-24T10:59:24;12.20;99.90
10678;DHT22;5387;48.722;9.110;2023-04-24T11:01:53;11.90;99.90
10678;DHT22;5387;48.722;9.110;2023-04-24T11:04:31;11.80;99.90
10678;DHT22;5387;48.722;9.110;2023-04-24T11:06:58;11.60;99.90
10678;DHT22;5387;48.722;9.110;2023-04-24T11:09:27;11.30;99.90
10678;DHT22;5387;48.722;9.110;2023-04-24T11:12:04;11.30;99.90
10678;DHT22;5387;48.722;9.110;2023-04-24T11:15:00;11.20;99.90
10678;DHT22;5387;48.722;9.110;2023-04-24T11:17:29;11.00;99.90
10678;DHT22;5387;48.722;9.110;2023-04-24T11:20:02;11.10;99.90
10678;DHT22;5387;48.722;9.110;2023-04-24T11:22:33;11.10;99.90
10678;DHT22;5387;48.722;9.110;2023-04-24T11:25:01;11.20;99.90
10678;DHT22;5387;48.722;9.110;2023-04-24T11:27:30;11.60;99.90
10678;DHT22;5387;48.722;9.110;2023-04-24T11:30:00;11.50;99.90
10678;DHT22;5387;48.722;9.110;2023-04-24T11:32:28;12.10;99.90
10678;DHT22;5387;48.722;9.110;2023-04-24T11:34:56;12.60;99.90
10678;DHT22;5387;48.722;9.110;2023-04-24T11:37:27;12.80;99.90
10678;DHT22;5387;48.722;9.110;2023-04-24T11:39:55;12.30;99.90
10678;DHT22;5387;48.722;9.110;2023-04-24T11:42:23;12.20;99.90
10678;DHT22;5387;48.722;9.110;2023-04-24T11:44:52;11.90;99.90
10678;DHT22;5387;48.722;9.110;2023-04-24T11:47:19;11.40;99.90
10678;DHT22;5387;48.722;9.110;2023-04-24T11:49:46;11.30;99.90
10678;DHT22;5387;48.722;9.110;2023-04-24T11:52:15;11.40;99.90
10678;DHT22;5387;48.722;9.110;2023-04-24T11:54:48;11.50;99.90
10678;DHT22;5387;48.722;9.110;2023-04-24T11:57:16;11.80;99.90
10678;DHT22;5387;48.722;9.110;2023-04-24T11:59:43;12.40;99.90
10678;DHT22;5387;48.722;9.110;2023-04-24T12:02:20;12.40;99.90
10678;DHT22;5387;48.722;9.110;2023-04-24T12:04:47;12.80;99.90
10678;DHT22;5387;48.722;9.110;2023-04-24T12:07:14;12.50;99.90
10678;DHT22;5387;48.722;9.110;2023-04-24T12:09:42;11.90;99.90
10678;DHT22;5387;48.722;9.110;2023-04-24T12:12:11;11.60;99.90
10678;DHT22;5387;48.722;9.110;2023-04-24T12:14:45;11.30;99.90
10678;DHT22;5387;48.722;9.110;2023-04-24T12:17:12;11.00;99.90
10678;DHT22;5387;48.722;9.110;2023-04-24T12:19:45;10.90;99.90
10678;DHT22;5387;48.722;9.110;2023-04-24T12:22:12;10.90;99.90
10678;DHT22;5387;48.722;9.110;2023-04-24T12:25:00;11.00;99.90
10678;DHT22;5387;48.722;9.110;2023-04-24T12:27:31;11.40;99.90
10678;DHT22;5387;48.722;9.110;2023-04-24T12:29:59;11.60;99.90
10678;DHT22;5387;48.722;9.110;2023-04-24T12:32:26;11.80;99.90
10678;DHT22;5387;48.722;9.110;2023-04-24T12:34:55;11.80;99.90
10678;DHT22;5387;48.722;9.110;2023-04-24T12:37:23;11.90;99.90
10678;DHT22;5387;48.722;9.110;2023-04-24T12:40:04;11.50;99.90
10678;DHT22;5387;48.722;9.110;2023-04-24T12:42:34;11.40;99.90
10678;DHT22;5387;48.722;9.110;2023-04-24T12:45:03;11.60;99.90
10678;DHT22;5387;48.722;9.110;2023-04-24T12:47:31;11.30;99.90
10678;DHT22;5387;48.722;9.110;2023-04-24T12:49:58;10.70;99.90
10678;DHT22;5387;48.722;9.110;2023-04-24T12:52:25;10.60;99.90
10678;DHT22;5387;48.722;9.110;2023-04-24T12:54:54;10.50;99.90
10678;DHT22;5387;48.722;9.110;2023-04-24T12:57:21;10.40;99.90
10678;DHT22;5387;48.722;9.110;2023-04-24T12:59:49;10.40;99.90
10678;DHT22;5387;48.722;9.110;2023-04-24T13:02:17;10.40;99.90
10678;DHT22;5387;48.722;9.110;2023-04-24T13:04:44;10.40;99.90
10678;DHT22;5387;48.722;9.110;2023-04-24T13:07:12;10.40;99.90
10678;DHT22;5387;48.722;9.110;2023-04-24T13:09:39;10.40;99.90
10678;DHT22;5387;48.722;9.110;2023-04-24T13:12:06;10.30;99.90
10678;DHT22;5387;48.722;9.110;2023-04-24T13:14:34;10.00;99.90
10678;DHT22;5387;48.722;9.110;2023-04-24T13:17:02;10.00;99.90
10678;DHT22;5387;48.722;9.110;2023-04-24T13:19:29;10.40;99.90
10678;DHT22;5387;48.722;9.110;2023-04-24T13:21:57;10.60;99.90
10678;DHT22;5387;48.722;9.110;2023-04-24T13:24:24;10.80;99.90
10678;DHT22;5387;48.722;9.110;2023-04-24T13:26:51;11.70;99.90
10678;DHT22;5387;48.722;9.110;2023-04-24T13:29:19;12.60;99.90
10678;DHT22;5387;48.722;9.110;2023-04-24T13:31:46;13.20;99.90
10678;DHT22;5387;48.722;9.110;2023-04-24T13:34:14;12.70;99.90
10678;DHT22;5387;48.722;9.110;2023-04-24T13:36:42;12.00;99.90
10678;DHT22;5387;48.722;9.110;2023-04-24T13:39:09;11.40;99.90
10678;DHT22;5387;48.722;9.110;2023-04-24T13:41:36;11.10;99.90
10678;DHT22;5387;48.722;9.110;2023-04-24T13:44:03;10.80;99.90
10678;DHT22;5387;48.722;9.110;2023-04-24T13:46:30;10.60;99.90
10678;DHT22;5387;48.722;9.110;2023-04-24T13:48:57;10.50;99.90
10678;DHT22;5387;48.722;9.110;2023-04-24T13:51:25;10.20;99.90
10678;DHT22;5387;48.722;9.110;2023-04-24T13:53:53;9.90;99.90
10678;DHT22;5387;48.722;9.110;2023-04-24T13:56:20;9.60;99.90
10678;DHT22;5387;48.722;9.110;2023-04-24T13:58:48;9.70;99.90
10678;DHT22;5387;48.722;9.110;2023-04-24T14:01:15;9.90;99.90
10678;DHT22;5387;48.722;9.110;2023-04-24T14:03:42;10.10;99.90
10678;DHT22;5387;48.722;9.110;2023-04-24T14:06:09;10.10;99.90
10678;DHT22;5387;48.722;9.110;2023-04-24T14:08:37;10.10;99.90
10678;DHT22;5387;48.722;9.110;2023-04-24T14:11:04;10.00;99.90
10678;DHT22;5387;48.722;9.110;2023-04-24T14:13:31;9.90;99.90
10678;DHT22;5387;48.722;9.110;2023-04-24T14:15:58;9.90;99.90
10678;DHT22;5387;48.722;9.110;2023-04-24T14:18:25;9.80;99.90
10678;DHT22;5387;48.722;9.110;2023-04-24T14:20:52;9.70;99.90
10678;DHT22;5387;48.722;9.110;2023-04-24T14:23:19;9.40;99.90
10678;DHT22;5387;48.722;9.110;2023-04-24T14:25:47;9.10;99.90
10678;DHT22;5387;48.722;9.110;2023-04-24T14:28:17;8.70;99.90
10678;DHT22;5387;48.722;9.110;2023-04-24T14:30:44;8.80;99.90
10678;DHT22;5387;48.722;9.110;2023-04-24T14:33:11;8.90;99.90
10678;DHT22;5387;48.722;9.110;2023-04-24T14:35:38;8.90;99.90
10678;DHT22;5387;48.722;9.110;2023-04-24T14:38:05;9.00;99.90
10678;DHT22;5387;48.722;9.110;2023-04-24T14:40:32;9.20;99.90
10678;DHT22;5387;48.722;9.110;2023-04-24T14:43:00;9.30;99.90
10678;DHT22;5387;48.722;9.110;2023-04-24T14:45:27;9.70;99.90
10678;DHT22;5387;48.722;9.110;2023-04-24T14:47:54;9.90;99.90
10678;DHT22;5387;48.722;9.110;2023-04-24T14:50:21;10.10;99.90
10678;DHT22;5387;48.722;9.110;2023-04-24T14:52:48;10.40;99.90
10678;DHT22;5387;48.722;9.110;2023-04-24T14:55:15;10.80;99.90
10678;DHT22;5387;48.722;9.110;2023-04-24T14:57:42;11.30;99.90
10678;DHT22;5387;48.722;9.110;2023-04-24T15:00:11;11.30;99.90
10678;DHT22;5387;48.722;9.110;2023-04-24T15:02:38;11.00;99.90
10678;DHT22;5387;48.722;9.110;2023-04-24T15:05:07;11.10;99.90
10678;DHT22;5387;48.722;9.110;2023-04-24T15:07:34;11.00;99.90
10678;DHT22;5387;48.722;9.110;2023-04-24T15:10:02;11.10;99.90
10678;DHT22;5387;48.722;9.110;2023-04-24T15:12:29;10.90;99.90
10678;DHT22;5387;48.722;9.110;2023-04-24T15:14:57;10.80;99.90
10678;DHT22;5387;48.722;9.110;2023-04-24T15:17:25;10.70;99.90
10678;DHT22;5387;48.722;9.110;2023-04-24T15:19:52;10.60;99.90
10678;DHT22;5387;48.722;9.110;2023-04-24T15:22:19;10.20;99.90
10678;DHT22;5387;48.722;9.110;2023-04-24T15:24:46;10.00;99.90
10678;DHT22;5387;48.722;9.110;2023-04-24T15:27:13;10.10;99.90
10678;DHT22;5387;48.722;9.110;2023-04-24T15:29:40;10.10;99.90
10678;DHT22;5387;48.722;9.110;2023-04-24T15:32:06;10.00;99.90
10678;DHT22;5387;48.722;9.110;2023-04-24T15:34:35;10.00;99.90
10678;DHT22;5387;48.722;9.110;2023-04-24T15:37:01;10.00;99.90
10678;DHT22;5387;48.722;9.110;2023-04-24T15:39:28;9.50;99.90
10678;DHT22;5387;48.722;9.110;2023-04-24T15:41:55;9.10;99.90
10678;DHT22;5387;48.722;9.110;2023-04-24T15:44:23;8.50;99.90
10678;DHT22;5387;48.722;9.110;2023-04-24T15:46:49;8.30;99.90
10678;DHT22;5387;48.722;9.110;2023-04-24T15:49:17;8.40;99.90
10678;DHT22;5387;48.722;9.110;2023-04-24T15:51:45;8.40;99.90
10678;DHT22;5387;48.722;9.110;2023-04-24T15:54:12;8.40;99.90
10678;DHT22;5387;48.722;9.110;2023-04-24T15:56:38;8.50;99.90
10678;DHT22;5387;48.722;9.110;2023-04-24T15:59:05;8.60;99.90